createdAt,value
2023-03-16T00:00:13.601Z,9.20
2023-03-16T00:02:41.680Z,10.87
2023-03-16T00:05:09.520Z,10.40
2023-03-16T00:07:36.142Z,11.13
2023-03-16T00:10:03.599Z,9.70
2023-03-16T00:12:34.460Z,10.70
2023-03-16T00:15:02.077Z,9.37
2023-03-16T00:17:28.623Z,10.93
2023-03-16T00:19:57.022Z,9.47
2023-03-16T00:22:29.094Z,10.37
2023-03-16T00:24:56.387Z,9.90
2023-03-16T00:27:24.763Z,10.20
2023-03-16T00:29:57.056Z,12.57
2023-03-16T00:32:29.536Z,12.50
2023-03-16T00:34:56.542Z,9.30
2023-03-16T00:37:24.484Z,10.97
2023-03-16T00:39:52.019Z,8.90
2023-03-16T00:42:19.888Z,9.67
2023-03-16T00:44:46.501Z,9.53
2023-03-16T00:47:14.340Z,9.50
2023-03-16T00:49:43.384Z,15.20
2023-03-16T00:52:14.944Z,10.87
2023-03-16T00:54:46.670Z,10.07
2023-03-16T00:57:21.763Z,9.17
2023-03-16T00:59:48.978Z,11.30
2023-03-16T01:02:19.137Z,9.90
2023-03-16T01:04:45.705Z,9.80
2023-03-16T01:07:14.211Z,9.33
2023-03-16T01:09:41.841Z,9.80
2023-03-16T01:12:11.769Z,10.20
2023-03-16T01:14:38.782Z,12.00
2023-03-16T01:17:08.459Z,9.37
2023-03-16T01:19:36.622Z,9.43
2023-03-16T01:22:05.254Z,9.63
2023-03-16T01:24:32.164Z,9.30
2023-03-16T01:26:58.744Z,9.03
2023-03-16T01:29:25.266Z,11.03
2023-03-16T01:31:51.966Z,9.10
2023-03-16T01:34:19.344Z,9.50
2023-03-16T01:36:50.049Z,9.83
2023-03-16T01:39:17.522Z,11.57
2023-03-16T01:41:45.944Z,11.27
2023-03-16T01:44:19.901Z,10.17
2023-03-16T01:46:46.458Z,10.93
2023-03-16T01:49:35.435Z,9.87
2023-03-16T01:52:06.844Z,9.30
2023-03-16T01:54:50.757Z,8.90
2023-03-16T01:57:22.839Z,9.37
2023-03-16T02:00:11.082Z,9.27
2023-03-16T02:02:43.448Z,9.37
2023-03-16T02:05:19.529Z,10.27
2023-03-16T02:07:58.401Z,13.57
2023-03-16T02:10:27.535Z,10.07
2023-03-16T02:12:55.393Z,10.27
2023-03-16T02:15:21.989Z,10.53
2023-03-16T02:17:50.769Z,10.03
2023-03-16T02:20:51.273Z,13.63
2023-03-16T02:23:20.891Z,10.57
2023-03-16T02:26:00.163Z,9.17
2023-03-16T02:28:53.575Z,9.40
2023-03-16T02:31:22.151Z,9.27
2023-03-16T02:33:50.728Z,9.90
2023-03-16T02:36:19.591Z,11.83
2023-03-16T02:38:46.395Z,9.90
2023-03-16T02:41:19.386Z,9.60
2023-03-16T02:43:56.669Z,10.10
2023-03-16T02:46:27.011Z,9.30
2023-03-16T02:49:03.163Z,9.63
2023-03-16T02:51:32.225Z,9.73
2023-03-16T02:53:59.282Z,9.53
2023-03-16T02:56:25.941Z,9.30
2023-03-16T02:58:52.828Z,10.20
2023-03-16T03:01:19.385Z,9.33
2023-03-16T03:03:45.937Z,8.93
2023-03-16T03:06:12.521Z,12.90
2023-03-16T03:08:39.601Z,9.63
2023-03-16T03:11:06.376Z,10.20
2023-03-16T03:13:33.081Z,8.97
2023-03-16T03:16:00.006Z,9.60
2023-03-16T03:18:26.557Z,9.17
2023-03-16T03:20:53.316Z,9.73
2023-03-16T03:23:19.988Z,9.30
2023-03-16T03:25:47.870Z,9.13
2023-03-16T03:28:14.671Z,9.10
2023-03-16T03:30:41.591Z,10.00
2023-03-16T03:33:08.582Z,11.43
2023-03-16T03:35:35.179Z,9.17
2023-03-16T03:38:01.773Z,11.33
2023-03-16T03:40:28.709Z,10.30
2023-03-16T03:42:55.419Z,9.63
2023-03-16T03:45:21.943Z,10.27
2023-03-16T03:47:48.482Z,9.83
2023-03-16T03:50:15.040Z,10.40
2023-03-16T03:52:42.000Z,10.60
2023-03-16T03:55:09.367Z,10.13
2023-03-16T03:57:36.289Z,10.20
2023-03-16T04:00:07.778Z,10.97
2023-03-16T04:02:34.412Z,10.17
2023-03-16T04:05:01.006Z,10.20
2023-03-16T04:07:27.528Z,10.77
2023-03-16T04:09:54.047Z,10.73
2023-03-16T04:12:20.653Z,10.00
2023-03-16T04:14:47.490Z,11.17
2023-03-16T04:17:14.086Z,11.50
2023-03-16T04:19:40.617Z,10.80
2023-03-16T04:22:07.625Z,10.07
2023-03-16T04:24:34.194Z,10.40
2023-03-16T04:27:02.648Z,9.70
2023-03-16T04:29:29.445Z,10.07
2023-03-16T04:31:56.004Z,10.10
2023-03-16T04:34:24.824Z,9.70
2023-03-16T04:36:52.732Z,9.67
2023-03-16T04:39:20.516Z,8.73
2023-03-16T04:41:47.049Z,8.30
2023-03-16T04:44:13.638Z,7.13
2023-03-16T04:46:40.437Z,8.03
2023-03-16T04:49:09.418Z,6.53
2023-03-16T04:51:37.840Z,7.37
2023-03-16T04:54:04.503Z,6.60
2023-03-16T04:56:31.021Z,7.40
2023-03-16T04:58:57.659Z,7.53
2023-03-16T05:01:24.321Z,7.80
2023-03-16T05:03:51.163Z,7.40
2023-03-16T05:06:17.684Z,6.40
2023-03-16T05:08:44.360Z,7.40
2023-03-16T05:11:10.900Z,6.80
2023-03-16T05:13:37.518Z,7.17
2023-03-16T05:16:04.545Z,7.13
2023-03-16T05:18:33.040Z,8.60
2023-03-16T05:21:00.067Z,6.17
2023-03-16T05:23:26.592Z,7.53
2023-03-16T05:25:53.146Z,8.00
2023-03-16T05:28:19.672Z,6.60
2023-03-16T05:30:46.286Z,7.40
2023-03-16T05:33:14.225Z,6.90
2023-03-16T05:35:40.918Z,7.10
2023-03-16T05:38:08.512Z,6.87
2023-03-16T05:40:35.255Z,8.07
2023-03-16T05:43:01.987Z,7.63
2023-03-16T05:45:28.611Z,7.10
2023-03-16T05:47:55.197Z,7.93
2023-03-16T05:50:23.472Z,6.53
2023-03-16T05:52:50.060Z,6.30
2023-03-16T05:55:17.916Z,7.13
2023-03-16T05:57:44.780Z,6.60
2023-03-16T06:00:18.019Z,6.53
2023-03-16T06:02:49.483Z,6.40
2023-03-16T06:05:17.789Z,7.00
2023-03-16T06:07:44.745Z,7.17
2023-03-16T06:10:12.742Z,7.63
2023-03-16T06:12:39.524Z,6.13
2023-03-16T06:15:07.748Z,7.03
2023-03-16T06:17:35.477Z,6.90
2023-03-16T06:20:02.642Z,7.77
2023-03-16T06:22:30.130Z,7.67
2023-03-16T06:24:56.626Z,6.80
2023-03-16T06:27:26.230Z,7.57
2023-03-16T06:29:53.026Z,7.30
2023-03-16T06:32:19.589Z,6.90
2023-03-16T06:34:46.122Z,7.97
2023-03-16T06:37:12.636Z,6.80
2023-03-16T06:39:39.233Z,7.00
2023-03-16T06:42:05.919Z,7.23
2023-03-16T06:44:32.788Z,7.53
2023-03-16T06:46:59.428Z,7.10
2023-03-16T06:49:26.027Z,7.50
2023-03-16T06:51:52.601Z,7.30
2023-03-16T06:54:19.149Z,6.67
2023-03-16T06:56:46.481Z,6.20
2023-03-16T06:59:13.278Z,7.33
2023-03-16T07:01:39.868Z,7.00
2023-03-16T07:04:06.434Z,7.60
2023-03-16T07:06:32.991Z,7.30
2023-03-16T07:09:01.480Z,7.90
2023-03-16T07:11:28.058Z,8.23
2023-03-16T07:13:54.555Z,7.90
2023-03-16T07:16:21.893Z,8.17
2023-03-16T07:18:48.484Z,7.70
2023-03-16T07:21:15.311Z,7.97
2023-03-16T07:23:41.869Z,8.97
2023-03-16T07:26:08.555Z,9.07
2023-03-16T07:28:35.357Z,7.97
2023-03-16T07:31:04.232Z,7.70
2023-03-16T07:33:32.655Z,8.17
2023-03-16T07:35:59.751Z,8.07
2023-03-16T07:38:26.390Z,7.20
2023-03-16T07:40:52.941Z,8.90
2023-03-16T07:43:19.641Z,7.70
2023-03-16T07:45:51.489Z,7.50
2023-03-16T07:48:18.837Z,8.37
2023-03-16T07:50:47.932Z,8.70
2023-03-16T07:53:15.509Z,7.47
2023-03-16T07:55:43.068Z,7.90
2023-03-16T07:58:11.186Z,9.67
2023-03-16T08:00:38.836Z,7.60
2023-03-16T08:03:06.053Z,10.23
2023-03-16T08:05:32.869Z,8.97
2023-03-16T08:08:01.055Z,8.40
2023-03-16T08:10:28.485Z,6.93
2023-03-16T08:12:55.296Z,7.07
2023-03-16T08:15:21.828Z,7.60
2023-03-16T08:17:48.425Z,8.53
2023-03-16T08:20:15.503Z,7.60
2023-03-16T08:22:45.922Z,7.27
2023-03-16T08:25:12.828Z,7.60
2023-03-16T08:27:40.112Z,8.40
2023-03-16T08:30:11.223Z,8.10
2023-03-16T08:32:39.623Z,8.70
2023-03-16T08:35:08.189Z,11.53
2023-03-16T08:37:35.004Z,9.57
2023-03-16T08:40:01.582Z,7.73
2023-03-16T08:42:31.226Z,9.10
2023-03-16T08:45:00.141Z,7.57
2023-03-16T08:47:26.712Z,9.37
2023-03-16T08:49:53.225Z,8.17
2023-03-16T08:52:19.752Z,8.23
2023-03-16T08:55:01.608Z,6.80
2023-03-16T08:57:29.257Z,6.83
2023-03-16T08:59:55.818Z,7.93
2023-03-16T09:02:22.354Z,8.13
2023-03-16T09:04:49.777Z,6.97
2023-03-16T09:07:16.558Z,6.60
2023-03-16T09:09:43.757Z,6.20
2023-03-16T09:12:10.636Z,7.37
2023-03-16T09:14:38.308Z,6.90
2023-03-16T09:17:05.291Z,7.53
2023-03-16T09:19:50.173Z,6.43
2023-03-16T09:22:19.537Z,8.40
2023-03-16T09:24:46.431Z,6.27
2023-03-16T09:27:15.215Z,6.67
2023-03-16T09:29:42.855Z,7.90
2023-03-16T09:32:10.083Z,6.67
2023-03-16T09:34:36.604Z,7.40
2023-03-16T09:37:03.290Z,7.20
2023-03-16T09:39:30.162Z,6.83
2023-03-16T09:42:20.683Z,6.73
2023-03-16T09:45:06.682Z,5.90
2023-03-16T09:47:35.854Z,7.27
2023-03-16T09:50:07.827Z,8.47
2023-03-16T09:52:55.308Z,7.00
2023-03-16T09:55:31.993Z,10.70
2023-03-16T09:57:59.898Z,8.67
2023-03-16T10:00:31.624Z,6.27
2023-03-16T10:03:06.820Z,5.60
2023-03-16T10:05:35.590Z,8.77
2023-03-16T10:08:25.586Z,5.57
2023-03-16T10:11:18.488Z,5.90
2023-03-16T10:14:35.448Z,6.20
2023-03-16T10:17:09.589Z,6.50
2023-03-16T10:19:47.691Z,10.00
2023-03-16T10:22:19.709Z,5.80
2023-03-16T10:25:13.087Z,8.57
2023-03-16T10:27:43.283Z,5.63
2023-03-16T10:30:37.271Z,5.63
2023-03-16T10:33:21.496Z,5.20
2023-03-16T10:36:12.069Z,17.80
2023-03-16T10:38:54.474Z,7.43
2023-03-16T10:41:23.189Z,4.90
2023-03-16T10:44:08.359Z,12.40
2023-03-16T10:46:50.745Z,6.37
2023-03-16T10:49:29.591Z,5.30
2023-03-16T10:52:02.734Z,5.00
2023-03-16T10:54:33.419Z,5.73
2023-03-16T10:57:01.758Z,4.93
2023-03-16T10:59:34.816Z,5.17
2023-03-16T11:02:17.089Z,4.63
2023-03-16T11:04:43.799Z,5.63
2023-03-16T11:07:20.761Z,7.23
2023-03-16T11:09:48.550Z,4.60
2023-03-16T11:12:30.056Z,4.43
2023-03-16T11:15:23.671Z,8.00
2023-03-16T11:17:55.700Z,9.87
2023-03-16T11:20:26.505Z,4.00
2023-03-16T11:22:53.018Z,4.30
2023-03-16T11:25:28.877Z,4.10
2023-03-16T11:28:19.751Z,3.70
2023-03-16T11:31:18.434Z,4.07
2023-03-16T11:33:45.053Z,3.97
2023-03-16T11:36:45.785Z,4.17
2023-03-16T11:39:15.126Z,4.23
2023-03-16T11:41:51.991Z,4.20
2023-03-16T11:44:51.967Z,4.57
2023-03-16T11:47:45.715Z,4.00
2023-03-16T11:50:31.232Z,5.10
2023-03-16T11:53:36.886Z,4.30
2023-03-16T11:56:17.473Z,4.43
2023-03-16T11:59:17.768Z,4.23
2023-03-16T12:02:03.175Z,6.73
2023-03-16T12:04:42.528Z,5.77
2023-03-16T12:07:26.404Z,4.23
2023-03-16T12:10:18.680Z,4.27
2023-03-16T12:13:16.142Z,4.20
2023-03-16T12:15:47.695Z,4.50
2023-03-16T12:18:21.112Z,4.40
2023-03-16T12:20:53.968Z,3.80
2023-03-16T12:23:27.967Z,4.50
2023-03-16T12:25:59.673Z,4.23
2023-03-16T12:28:29.040Z,4.33
2023-03-16T12:31:14.505Z,5.37
2023-03-16T12:34:02.028Z,4.17
2023-03-16T12:36:41.798Z,4.27
2023-03-16T12:39:24.767Z,4.40
2023-03-16T12:42:19.227Z,4.30
2023-03-16T12:45:26.602Z,4.47
2023-03-16T12:48:40.435Z,4.03
2023-03-16T12:51:07.020Z,4.93
2023-03-16T12:53:54.581Z,4.00
2023-03-16T12:56:31.940Z,3.80
2023-03-16T12:59:01.478Z,4.40
2023-03-16T13:01:31.136Z,4.37
2023-03-16T13:04:34.298Z,5.37
2023-03-16T13:07:22.893Z,4.70
2023-03-16T13:10:09.827Z,4.10
2023-03-16T13:12:41.479Z,4.30
2023-03-16T13:15:21.223Z,4.50
2023-03-16T13:17:50.806Z,4.60
2023-03-16T13:20:30.697Z,4.63
2023-03-16T13:23:23.774Z,4.33
2023-03-16T13:26:10.932Z,4.07
2023-03-16T13:28:38.762Z,4.30
2023-03-16T13:31:36.987Z,4.80
2023-03-16T13:34:07.444Z,6.73
2023-03-16T13:36:35.090Z,7.37
2023-03-16T13:39:16.118Z,4.23
2023-03-16T13:41:43.532Z,3.95
2023-03-16T13:44:15.152Z,5.40
2023-03-16T13:46:41.682Z,5.68
2023-03-16T13:49:11.945Z,3.78
2023-03-16T13:51:38.655Z,3.53
2023-03-16T13:54:29.735Z,3.95
2023-03-16T13:57:00.148Z,6.50
2023-03-16T13:59:27.002Z,4.47
2023-03-16T14:01:58.699Z,3.90
2023-03-16T14:04:32.399Z,3.85
2023-03-16T14:07:01.785Z,3.70
2023-03-16T14:09:31.800Z,6.28
2023-03-16T14:11:58.376Z,5.18
2023-03-16T14:14:49.873Z,3.38
2023-03-16T14:17:19.582Z,3.95
2023-03-16T14:19:52.089Z,3.85
2023-03-16T14:22:23.356Z,6.05
2023-03-16T14:24:56.671Z,5.95
2023-03-16T14:27:42.636Z,3.78
2023-03-16T14:30:20.149Z,3.80
2023-03-16T14:32:58.164Z,3.60
2023-03-16T14:35:42.893Z,3.33
2023-03-16T14:38:36.734Z,4.18
2023-03-16T14:41:09.372Z,3.85
2023-03-16T14:43:38.543Z,3.28
2023-03-16T14:46:07.260Z,3.33
2023-03-16T14:48:35.506Z,3.42
2023-03-16T14:51:03.201Z,3.17
2023-03-16T14:53:30.680Z,3.33
2023-03-16T14:55:58.857Z,3.20
2023-03-16T14:58:25.991Z,3.53
2023-03-16T15:00:53.754Z,4.13
2023-03-16T15:03:23.737Z,3.42
2023-03-16T15:05:51.600Z,3.10
2023-03-16T15:08:32.648Z,3.30
2023-03-16T15:11:03.017Z,3.42
2023-03-16T15:13:41.556Z,4.90
2023-03-16T15:16:13.802Z,3.30
2023-03-16T15:18:41.682Z,3.38
2023-03-16T15:21:14.152Z,2.90
2023-03-16T15:23:42.832Z,3.50
2023-03-16T15:26:11.978Z,7.07
2023-03-16T15:28:38.677Z,3.53
2023-03-16T15:31:05.456Z,4.67
2023-03-16T15:33:32.935Z,5.00
2023-03-16T15:36:02.228Z,3.80
2023-03-16T15:38:36.288Z,3.67
2023-03-16T15:41:03.272Z,3.63
2023-03-16T15:43:30.828Z,4.67
2023-03-16T15:45:59.736Z,4.00
2023-03-16T15:48:26.278Z,4.40
2023-03-16T15:51:08.228Z,3.80
2023-03-16T15:53:41.252Z,4.63
2023-03-16T15:56:13.552Z,4.40
2023-03-16T15:58:43.281Z,4.20
2023-03-16T16:01:21.230Z,5.87
2023-03-16T16:03:48.217Z,4.10
2023-03-16T16:06:15.714Z,4.47
2023-03-16T16:08:42.352Z,4.63
2023-03-16T16:11:24.018Z,5.23
2023-03-16T16:13:51.409Z,3.90
2023-03-16T16:16:19.574Z,5.50
2023-03-16T16:18:48.083Z,5.50
2023-03-16T16:21:23.063Z,4.20
2023-03-16T16:23:51.684Z,4.40
2023-03-16T16:26:46.997Z,4.43
2023-03-16T16:29:17.064Z,5.90
2023-03-16T16:31:44.228Z,4.60
2023-03-16T16:34:17.150Z,4.33
2023-03-16T16:36:44.455Z,4.30
2023-03-16T16:39:11.113Z,4.20
2023-03-16T16:41:38.167Z,4.17
2023-03-16T16:44:13.645Z,4.30
2023-03-16T16:46:41.312Z,4.00
2023-03-16T16:49:17.546Z,4.20
2023-03-16T16:51:44.240Z,4.00
2023-03-16T16:54:25.381Z,4.40
2023-03-16T16:56:53.999Z,4.40
2023-03-16T16:59:22.117Z,4.70
2023-03-16T17:01:53.978Z,4.67
2023-03-16T17:04:24.428Z,5.73
2023-03-16T17:06:55.171Z,4.80
2023-03-16T17:09:23.197Z,4.97
2023-03-16T17:11:50.976Z,4.87
2023-03-16T17:14:19.709Z,5.20
2023-03-16T17:16:48.147Z,4.67
2023-03-16T17:19:27.144Z,4.97
2023-03-16T17:21:55.566Z,4.77
2023-03-16T17:24:22.876Z,4.90
2023-03-16T17:26:52.494Z,5.13
2023-03-16T17:29:25.768Z,5.20
2023-03-16T17:31:52.708Z,5.23
2023-03-16T17:34:25.175Z,5.20
2023-03-16T17:36:52.457Z,5.07
2023-03-16T17:39:28.027Z,5.20
2023-03-16T17:42:00.099Z,5.40
2023-03-16T17:44:33.402Z,5.83
2023-03-16T17:47:00.103Z,6.37
2023-03-16T17:49:28.376Z,6.80
2023-03-16T17:51:55.660Z,6.40
2023-03-16T17:54:22.310Z,7.40
2023-03-16T17:56:53.926Z,5.60
2023-03-16T17:59:22.074Z,5.67
2023-03-16T18:01:48.893Z,5.77
2023-03-16T18:04:21.791Z,5.90
2023-03-16T18:06:49.279Z,5.90
2023-03-16T18:09:17.765Z,6.40
2023-03-16T18:11:49.769Z,5.83
2023-03-16T18:14:36.475Z,6.03
2023-03-16T18:17:26.546Z,5.87
2023-03-16T18:19:53.257Z,6.33
2023-03-16T18:22:22.825Z,5.60
2023-03-16T18:24:49.994Z,8.23
2023-03-16T18:27:16.613Z,5.83
2023-03-16T18:29:44.262Z,8.00
2023-03-16T18:32:27.196Z,6.03
2023-03-16T18:34:54.067Z,7.57
2023-03-16T18:37:23.646Z,6.80
2023-03-16T18:39:51.765Z,9.27
2023-03-16T18:42:20.308Z,7.43
2023-03-16T18:44:46.922Z,6.40
2023-03-16T18:47:18.560Z,8.47
2023-03-16T18:49:48.820Z,8.10
2023-03-16T18:52:24.112Z,6.97
2023-03-16T18:54:52.809Z,13.80
2023-03-16T18:57:25.263Z,11.47
2023-03-16T18:59:52.484Z,8.43
2023-03-16T19:02:38.602Z,12.23
2023-03-16T19:05:11.110Z,19.50
2023-03-16T19:07:42.022Z,18.20
2023-03-16T19:10:33.010Z,16.00
2023-03-16T19:12:59.599Z,12.53
2023-03-16T19:15:32.429Z,13.70
2023-03-16T19:17:59.742Z,11.07
2023-03-16T19:20:31.753Z,9.27
2023-03-16T19:23:05.951Z,8.37
2023-03-16T19:25:36.608Z,7.87
2023-03-16T19:28:05.588Z,8.37
2023-03-16T19:30:35.090Z,8.97
2023-03-16T19:33:02.192Z,9.23
2023-03-16T19:35:48.539Z,10.50
2023-03-16T19:38:17.152Z,10.13
2023-03-16T19:40:44.543Z,7.07
2023-03-16T19:43:18.053Z,8.33
2023-03-16T19:45:46.115Z,8.23
2023-03-16T19:48:22.549Z,7.40
2023-03-16T19:50:50.939Z,8.17
2023-03-16T19:53:20.659Z,7.10
2023-03-16T19:55:49.236Z,7.73
2023-03-16T19:58:20.764Z,7.13
2023-03-16T20:00:47.838Z,7.23
2023-03-16T20:03:14.911Z,7.20
2023-03-16T20:05:41.816Z,8.10
2023-03-16T20:08:37.757Z,7.00
2023-03-16T20:11:07.206Z,7.03
2023-03-16T20:13:34.705Z,6.93
2023-03-16T20:16:01.557Z,8.33
2023-03-16T20:18:29.247Z,7.63
2023-03-16T20:20:55.824Z,9.07
2023-03-16T20:23:24.309Z,7.33
2023-03-16T20:25:55.468Z,7.57
2023-03-16T20:28:25.655Z,7.17
2023-03-16T20:30:52.999Z,6.97
2023-03-16T20:33:25.314Z,7.40
2023-03-16T20:35:56.027Z,6.90
2023-03-16T20:38:23.445Z,7.60
2023-03-16T20:40:54.396Z,7.17
2023-03-16T20:43:29.977Z,7.30
2023-03-16T20:45:59.567Z,8.73
2023-03-16T20:48:27.316Z,10.60
2023-03-16T20:50:55.977Z,8.73
2023-03-16T20:53:23.484Z,7.40
2023-03-16T20:55:51.855Z,8.67
2023-03-16T20:58:27.892Z,7.40
2023-03-16T21:00:58.195Z,7.47
2023-03-16T21:03:28.380Z,7.30
2023-03-16T21:05:59.620Z,7.10
2023-03-16T21:08:26.825Z,7.33
2023-03-16T21:10:54.921Z,7.80
2023-03-16T21:13:29.200Z,10.77
2023-03-16T21:15:58.455Z,7.63
2023-03-16T21:18:25.477Z,7.77
2023-03-16T21:20:52.844Z,7.47
2023-03-16T21:23:21.776Z,7.27
2023-03-16T21:25:54.683Z,8.43
2023-03-16T21:28:21.877Z,7.37
2023-03-16T21:30:51.128Z,7.40
2023-03-16T21:33:38.778Z,7.43
2023-03-16T21:36:08.085Z,7.77
2023-03-16T21:38:34.840Z,7.70
2023-03-16T21:41:01.445Z,9.43
2023-03-16T21:43:28.092Z,7.03
2023-03-16T21:45:56.559Z,7.57
2023-03-16T21:48:49.539Z,7.40
2023-03-16T21:51:21.894Z,6.90
2023-03-16T21:53:49.507Z,7.63
2023-03-16T21:56:22.656Z,7.33
2023-03-16T21:58:50.091Z,7.07
2023-03-16T22:01:32.134Z,6.70
2023-03-16T22:04:04.903Z,7.47
2023-03-16T22:06:31.999Z,7.67
2023-03-16T22:08:59.824Z,7.70
2023-03-16T22:11:28.999Z,7.17
2023-03-16T22:13:57.117Z,7.20
2023-03-16T22:16:26.764Z,7.47
2023-03-16T22:18:56.520Z,9.07
2023-03-16T22:21:43.943Z,7.30
2023-03-16T22:24:23.631Z,10.97
2023-03-16T22:26:50.827Z,6.83
2023-03-16T22:29:20.092Z,7.63
2023-03-16T22:31:47.336Z,7.03
2023-03-16T22:34:37.184Z,7.57
2023-03-16T22:37:04.369Z,8.33
2023-03-16T22:39:36.788Z,7.50
2023-03-16T22:42:19.383Z,7.33
2023-03-16T22:44:46.069Z,7.43
2023-03-16T22:47:36.644Z,7.70
2023-03-16T22:50:03.437Z,7.53
2023-03-16T22:52:32.815Z,7.20
2023-03-16T22:55:01.539Z,7.00
2023-03-16T22:57:29.109Z,7.13
2023-03-16T22:59:56.102Z,6.17
2023-03-16T23:02:26.181Z,7.00
2023-03-16T23:04:52.733Z,6.83
2023-03-16T23:07:19.985Z,7.00
2023-03-16T23:09:48.311Z,7.70
2023-03-16T23:12:18.808Z,7.47
2023-03-16T23:14:45.554Z,6.73
2023-03-16T23:17:20.656Z,7.10
2023-03-16T23:19:48.007Z,6.73
2023-03-16T23:22:15.006Z,6.83
2023-03-16T23:24:42.233Z,6.70
2023-03-16T23:27:19.002Z,7.80
2023-03-16T23:29:45.828Z,6.13
2023-03-16T23:32:12.880Z,6.63
2023-03-16T23:34:39.393Z,6.77
2023-03-16T23:37:05.936Z,6.20
2023-03-16T23:39:32.692Z,7.77
2023-03-16T23:41:59.324Z,6.57
2023-03-16T23:44:28.774Z,6.70
2023-03-16T23:46:55.903Z,6.50
2023-03-16T23:49:26.047Z,14.37
2023-03-16T23:51:53.636Z,10.27
2023-03-16T23:54:25.966Z,6.60
2023-03-16T23:56:52.741Z,7.10
2023-03-16T23:59:20.192Z,6.37
